createdAt,value
2023-02-15T00:01:59.701Z,-2.75
2023-02-15T00:07:01.507Z,-2.88
2023-02-15T00:12:03.598Z,-2.90
2023-02-15T00:17:05.528Z,-2.85
2023-02-15T00:22:07.491Z,-2.96
2023-02-15T00:27:10.328Z,-3.00
2023-02-15T00:32:12.146Z,-2.99
2023-02-15T00:37:14.005Z,-3.00
2023-02-15T00:42:15.820Z,-3.08
2023-02-15T00:47:17.843Z,-3.03
2023-02-15T00:52:19.640Z,-2.98
2023-02-15T00:57:21.472Z,-3.10
2023-02-15T01:02:23.344Z,-3.18
2023-02-15T01:07:25.168Z,-3.20
2023-02-15T01:12:30.309Z,-3.17
2023-02-15T01:17:33.228Z,-3.21
2023-02-15T01:22:35.056Z,-3.29
2023-02-15T01:27:36.923Z,-3.28
2023-02-15T01:32:38.748Z,-3.26
2023-02-15T01:37:40.624Z,-3.27
2023-02-15T01:42:42.584Z,-3.21
2023-02-15T01:48:28.954Z,-3.33
2023-02-15T01:53:43.590Z,-3.37
2023-02-15T01:58:46.497Z,-3.47
2023-02-15T02:04:09.251Z,-3.45
2023-02-15T02:09:11.394Z,-3.48
2023-02-15T02:14:13.842Z,-3.54
2023-02-15T02:19:34.254Z,-3.62
2023-02-15T02:24:54.276Z,-3.66
2023-02-15T02:30:12.258Z,-3.68
2023-02-15T02:35:16.985Z,-3.75
2023-02-15T02:40:34.173Z,-3.71
2023-02-15T02:45:48.891Z,-3.72
2023-02-15T02:50:52.498Z,-3.68
2023-02-15T02:55:58.818Z,-3.80
2023-02-15T03:01:09.494Z,-3.87
2023-02-15T03:06:24.925Z,-3.96
2023-02-15T03:11:27.038Z,-4.03
2023-02-15T03:16:29.503Z,-3.99
2023-02-15T03:21:42.200Z,-3.85
2023-02-15T03:26:48.142Z,-3.93
2023-02-15T03:31:57.845Z,-4.04
2023-02-15T03:37:06.144Z,-4.04
2023-02-15T03:42:22.102Z,-4.02
2023-02-15T03:47:29.620Z,-3.99
2023-02-15T03:52:34.949Z,-4.02
2023-02-15T03:57:56.089Z,-4.13
2023-02-15T04:03:17.123Z,-4.19
2023-02-15T04:08:18.984Z,-4.09
2023-02-15T04:13:21.972Z,-4.15
2023-02-15T04:18:42.279Z,-4.21
2023-02-15T04:24:02.532Z,-4.26
2023-02-15T04:29:04.391Z,-4.38
2023-02-15T04:34:06.214Z,-4.30
2023-02-15T04:39:09.217Z,-4.32
2023-02-15T04:44:11.493Z,-4.27
2023-02-15T04:49:13.451Z,-4.33
2023-02-15T04:54:15.283Z,-4.33
2023-02-15T04:59:17.126Z,-4.27
2023-02-15T05:04:19.111Z,-4.32
2023-02-15T05:09:20.911Z,-4.38
2023-02-15T05:14:22.763Z,-4.37
2023-02-15T05:19:25.591Z,-4.44
2023-02-15T05:24:46.005Z,-4.51
2023-02-15T05:29:47.974Z,-4.48
2023-02-15T05:34:49.817Z,-4.41
2023-02-15T05:39:51.603Z,-4.46
2023-02-15T05:44:53.853Z,-4.44
2023-02-15T05:49:55.945Z,-4.56
2023-02-15T05:54:57.804Z,-4.50
2023-02-15T05:59:59.623Z,-4.58
2023-02-15T06:05:01.494Z,-4.75
2023-02-15T06:10:04.908Z,-4.77
2023-02-15T06:15:07.320Z,-4.70
2023-02-15T06:20:09.838Z,-4.79
2023-02-15T06:25:12.307Z,-4.80
2023-02-15T06:30:14.645Z,-4.91
2023-02-15T06:35:16.496Z,-4.83
2023-02-15T06:40:18.850Z,-4.81
2023-02-15T06:45:20.683Z,-4.61
2023-02-15T06:50:22.524Z,-4.48
2023-02-15T06:55:24.462Z,-4.46
2023-02-15T07:00:26.416Z,-4.48
2023-02-15T07:05:32.291Z,-4.38
2023-02-15T07:10:34.305Z,-4.28
2023-02-15T07:15:36.128Z,-4.13
2023-02-15T07:20:38.629Z,-4.09
2023-02-15T07:25:40.421Z,-3.92
2023-02-15T07:30:42.249Z,-3.73
2023-02-15T07:35:48.835Z,-3.60
2023-02-15T07:40:50.618Z,-3.47
2023-02-15T07:45:52.501Z,-3.26
2023-02-15T07:50:54.360Z,-3.01
2023-02-15T07:56:00.144Z,-2.73
2023-02-15T08:01:05.156Z,-2.42
2023-02-15T08:06:07.978Z,-2.06
2023-02-15T08:11:33.737Z,-1.73
2023-02-15T08:16:42.915Z,-1.39
2023-02-15T08:21:50.260Z,-1.05
2023-02-15T08:26:52.782Z,-0.74
2023-02-15T08:31:59.885Z,-0.42
2023-02-15T08:37:02.074Z,-0.01
2023-02-15T08:42:03.977Z,0.37
2023-02-15T08:47:05.797Z,0.74
2023-02-15T08:52:08.082Z,1.26
2023-02-15T08:57:11.341Z,1.85
2023-02-15T09:02:13.319Z,2.34
2023-02-15T09:07:15.149Z,2.76
2023-02-15T09:12:17.018Z,3.16
2023-02-15T09:17:18.867Z,3.53
2023-02-15T09:22:20.990Z,3.97
2023-02-15T09:27:22.884Z,4.40
2023-02-15T09:32:24.774Z,4.86
2023-02-15T09:37:26.585Z,5.34
2023-02-15T09:42:34.468Z,5.91
2023-02-15T09:48:28.653Z,6.55
2023-02-15T09:53:39.304Z,7.19
2023-02-15T09:58:47.228Z,7.80
2023-02-15T10:03:52.397Z,8.32
2023-02-15T10:09:14.500Z,8.75
2023-02-15T10:14:40.511Z,9.10
2023-02-15T10:20:00.871Z,9.49
2023-02-15T10:25:06.088Z,9.70
2023-02-15T10:30:14.225Z,10.06
2023-02-15T10:35:38.890Z,10.22
2023-02-15T10:41:10.632Z,10.48
2023-02-15T10:46:27.680Z,10.97
2023-02-15T10:51:41.730Z,11.22
2023-02-15T10:57:15.199Z,11.46
2023-02-15T11:03:11.260Z,11.86
2023-02-15T11:08:13.719Z,12.78
2023-02-15T11:13:18.956Z,15.97
2023-02-15T11:18:28.827Z,18.24
2023-02-15T11:23:33.185Z,19.99
2023-02-15T11:28:48.561Z,20.15
2023-02-15T11:34:33.022Z,20.43
2023-02-15T11:39:38.441Z,18.78
2023-02-15T11:44:59.131Z,18.55
2023-02-15T11:50:00.952Z,17.68
2023-02-15T11:55:02.787Z,19.09
2023-02-15T12:00:40.149Z,18.14
2023-02-15T12:05:45.531Z,18.50
2023-02-15T12:10:59.765Z,18.15
2023-02-15T12:16:11.307Z,18.76
2023-02-15T12:21:17.533Z,18.79
2023-02-15T12:26:32.371Z,18.69
2023-02-15T12:31:40.762Z,19.27
2023-02-15T12:36:55.438Z,20.84
2023-02-15T12:42:05.556Z,20.17
2023-02-15T12:47:19.723Z,20.10
2023-02-15T12:52:21.545Z,19.88
2023-02-15T12:57:31.676Z,20.08
2023-02-15T13:02:49.485Z,20.47
2023-02-15T13:07:57.064Z,21.33
2023-02-15T13:12:59.681Z,21.98
2023-02-15T13:18:03.138Z,20.73
2023-02-15T13:23:14.590Z,21.17
2023-02-15T13:28:19.396Z,23.01
2023-02-15T13:33:37.958Z,21.42
2023-02-15T13:39:02.742Z,22.60
2023-02-15T13:44:16.130Z,22.72
2023-02-15T13:49:30.396Z,23.53
2023-02-15T13:54:56.840Z,23.39
2023-02-15T14:00:14.862Z,17.18
2023-02-15T14:05:28.833Z,14.10
2023-02-15T14:11:08.043Z,12.67
2023-02-15T14:16:30.053Z,12.13
2023-02-15T14:21:36.354Z,11.96
2023-02-15T14:26:44.279Z,11.90
2023-02-15T14:31:53.348Z,11.80
2023-02-15T14:36:56.521Z,11.65
2023-02-15T14:42:05.819Z,11.55
2023-02-15T14:47:26.173Z,11.44
2023-02-15T14:52:28.636Z,11.34
2023-02-15T14:57:35.012Z,11.25
2023-02-15T15:02:52.776Z,11.09
2023-02-15T15:08:00.873Z,10.93
2023-02-15T15:13:31.516Z,10.82
2023-02-15T15:18:48.800Z,10.54
2023-02-15T15:23:51.181Z,10.37
2023-02-15T15:28:53.005Z,10.35
2023-02-15T15:34:27.305Z,10.16
2023-02-15T15:39:50.921Z,10.08
2023-02-15T15:45:04.991Z,10.02
2023-02-15T15:50:19.387Z,9.81
2023-02-15T15:55:24.734Z,9.71
2023-02-15T16:00:47.887Z,9.58
2023-02-15T16:05:55.219Z,9.54
2023-02-15T16:10:58.874Z,9.31
2023-02-15T16:16:00.885Z,9.14
2023-02-15T16:21:03.420Z,8.98
2023-02-15T16:26:27.280Z,8.75
2023-02-15T16:31:29.243Z,8.44
2023-02-15T16:36:31.108Z,8.20
2023-02-15T16:41:33.386Z,7.91
2023-02-15T16:46:41.390Z,7.51
2023-02-15T16:51:46.056Z,7.00
2023-02-15T16:56:48.507Z,6.67
2023-02-15T17:01:53.029Z,5.75
2023-02-15T17:07:27.312Z,5.10
2023-02-15T17:12:56.125Z,4.51
2023-02-15T17:18:02.259Z,4.24
2023-02-15T17:23:05.175Z,4.17
2023-02-15T17:28:18.535Z,4.00
2023-02-15T17:33:34.662Z,3.90
2023-02-15T17:38:38.999Z,3.77
2023-02-15T17:43:42.559Z,4.20
2023-02-15T17:48:44.429Z,4.59
2023-02-15T17:54:05.811Z,4.55
2023-02-15T17:59:07.842Z,4.29
2023-02-15T18:04:31.632Z,4.36
2023-02-15T18:09:52.095Z,4.38
2023-02-15T18:14:55.204Z,4.08
2023-02-15T18:19:57.162Z,3.69
2023-02-15T18:24:59.506Z,3.76
2023-02-15T18:30:01.423Z,3.67
2023-02-15T18:35:05.516Z,3.65
2023-02-15T18:40:15.928Z,3.56
2023-02-15T18:45:25.199Z,3.22
2023-02-15T18:50:31.589Z,3.00
2023-02-15T18:55:35.471Z,2.66
2023-02-15T19:00:37.364Z,2.51
2023-02-15T19:05:42.158Z,2.38
2023-02-15T19:10:44.150Z,2.35
2023-02-15T19:15:45.995Z,2.25
2023-02-15T19:20:48.321Z,2.07
2023-02-15T19:25:52.452Z,1.92
2023-02-15T19:30:54.342Z,1.93
2023-02-15T19:35:57.592Z,1.94
2023-02-15T19:41:06.789Z,2.04
2023-02-15T19:46:19.167Z,2.26
2023-02-15T19:51:23.214Z,2.49
2023-02-15T19:56:27.021Z,2.81
2023-02-15T20:01:31.203Z,2.84
2023-02-15T20:06:33.664Z,3.06
2023-02-15T20:11:35.728Z,3.18
2023-02-15T20:16:37.568Z,3.00
2023-02-15T20:21:41.396Z,3.12
2023-02-15T20:26:43.659Z,3.25
2023-02-15T20:31:46.031Z,3.32
2023-02-15T20:36:48.109Z,3.55
2023-02-15T20:41:49.993Z,3.61
2023-02-15T20:46:54.753Z,3.63
2023-02-15T20:51:57.496Z,3.65
2023-02-15T20:56:59.501Z,3.58
2023-02-15T21:02:14.562Z,3.65
2023-02-15T21:07:18.592Z,3.80
2023-02-15T21:12:22.226Z,3.78
2023-02-15T21:17:24.211Z,3.60
2023-02-15T21:22:26.975Z,3.30
2023-02-15T21:27:29.103Z,3.12
2023-02-15T21:32:31.032Z,3.22
2023-02-15T21:37:35.661Z,3.12
2023-02-15T21:42:55.964Z,3.01
2023-02-15T21:47:57.831Z,2.65
2023-02-15T21:52:59.972Z,2.56
2023-02-15T21:58:02.256Z,2.53
2023-02-15T22:03:05.595Z,2.28
2023-02-15T22:08:13.296Z,2.29
2023-02-15T22:13:19.892Z,2.11
2023-02-15T22:18:24.868Z,1.67
2023-02-15T22:23:26.800Z,1.63
2023-02-15T22:28:33.896Z,2.05
2023-02-15T22:33:35.896Z,2.29
2023-02-15T22:38:37.724Z,2.35
2023-02-15T22:43:42.223Z,2.33
2023-02-15T22:48:47.461Z,2.33
2023-02-15T22:53:51.847Z,2.42
2023-02-15T22:59:02.587Z,2.70
2023-02-15T23:04:04.828Z,2.87
2023-02-15T23:09:06.650Z,2.99
2023-02-15T23:14:38.429Z,2.97
2023-02-15T23:19:40.318Z,2.89
2023-02-15T23:24:42.987Z,2.81
2023-02-15T23:29:44.837Z,2.78
2023-02-15T23:34:46.688Z,2.79
2023-02-15T23:40:06.981Z,2.82
2023-02-15T23:45:23.323Z,2.80
2023-02-15T23:50:27.488Z,2.92
2023-02-15T23:55:38.677Z,3.00
